Date,TemperatureHighF,TemperatureAvgF,TemperatureLowF,DewpointHighF,DewpointAvgF,DewpointLowF,HumidityHigh,HumidityAvg,HumidityLow,PressureMaxIn,PressureMinIn,WindSpeedMaxMPH,WindSpeedAvgMPH,GustSpeedMaxMPH,PrecipitationSumIn
2013-3-1,37.7,28.9,23.9,27.7,22.1,18.4,92,76,55,29.98,29.82,8,2,8,0.04
2013-3-2,42.1,23.2,7.3,22.5,13.0,1.6,86,67,39,30.00,29.91,6,1,6,0.00
2013-3-3,42.8,23.0,3.0,24.5,11.1,-2.0,89,63,33,29.92,29.75,5,1,5,0.00
2013-3-4,40.7,31.1,25.1,29.2,24.3,16.5,90,76,59,29.77,29.58,8,2,8,0.07
2013-3-5,37.8,31.2,28.3,31.2,26.5,23.4,92,83,72,29.88,29.60,8,1,8,0.16
2013-3-6,35.3,26.1,18.1,24.5,19.8,14.7,89,77,62,30.07,29.88,6,1,6,0.02
2013-3-7,41.7,20.7,2.6,27.1,13.6,-1.4,87,75,53,30.12,30.04,5,1,5,0.04
2013-3-8,47.9,40.8,36.4,33.5,31.4,28.6,84,70,55,30.09,29.90,8,2,8,0.00
2013-3-9,43.4,39.4,36.8,41.5,36.3,32.8,94,89,79,29.90,29.46,8,2,8,0.79
2013-3-10,46.6,42.0,36.2,45.2,40.4,34.6,95,94,92,29.46,29.26,7,1,7,1.10
2013-3-11,37.1,33.0,29.0,35.8,30.4,23.8,96,90,80,29.63,29.32,9,1,9,0.07
2013-3-12,34.9,28.7,22.5,29.9,23.9,19.6,92,82,67,29.86,29.62,9,2,9,0.02
2013-3-13,41.1,28.0,18.4,21.5,17.6,13.1,85,67,40,30.09,29.86,6,1,6,0.00
2013-3-14,53.7,34.6,18.5,34.7,25.4,13.6,90,71,47,30.06,29.77,8,1,8,0.00
2013-3-15,51.5,36.6,24.2,39.3,30.7,21.3,93,80,61,29.78,29.42,6,1,6,0.00
2013-3-16,39.0,34.8,31.2,34.3,31.1,25.6,94,86,74,29.86,29.43,6,1,6,0.01
2013-3-17,39.9,31.9,25.9,26.0,22.8,19.5,81,69,54,29.89,29.73,10,2,10,0.00
2013-3-18,21.8,21.8,21.7,15.1,14.8,14.5,75,74,73,29.65,29.64,5,2,6,0.00
2013-3-19,34.9,22.4,15.9,18.0,12.6,9.0,75,66,47,29.86,29.63,10,3,10,0.00
2013-3-20,30.6,21.8,13.7,16.0,9.9,5.7,74,61,42,29.94,29.82,9,2,9,0.00
2013-3-21,41.1,23.3,7.7,16.6,11.0,2.6,83,61,35,29.83,29.71,6,1,6,0.00
2013-3-22,49.1,29.6,12.8,24.1,17.5,8.3,87,63,34,29.79,29.70,7,1,7,0.00
2013-3-23,48.8,36.2,24.0,25.5,23.0,18.2,84,61,37,29.82,29.69,9,2,9,0.00
2013-3-24,34.5,31.0,29.2,30.0,28.0,25.1,93,89,68,29.72,29.48,8,2,8,0.14
2013-3-25,45.0,33.9,28.1,32.1,26.8,24.9,93,76,52,29.88,29.56,8,1,8,0.19
2013-3-26,46.8,35.8,23.2,33.4,27.6,19.9,90,73,54,30.01,29.88,6,1,6,0.00
2013-3-27,57.6,39.0,26.6,33.4,26.8,20.4,85,64,39,30.07,29.98,8,1,8,0.00
2013-3-28,60.0,40.1,19.6,34.6,27.8,15.8,91,65,37,30.07,29.95,8,1,8,0.00
2013-3-29,64.3,44.8,25.4,38.5,31.4,22.1,91,64,32,30.01,29.89,6,1,6,0.00
2013-3-30,53.8,46.6,32.0,48.1,39.9,28.4,93,78,59,29.91,29.59,10,2,10,0.00
2013-3-31,57.8,48.4,38.7,49.2,37.7,26.7,96,70,34,29.72,29.54,11,2,11,0.00